createdAt,value
2022-12-01T02:23:22.570Z,3.20
2022-12-01T02:26:11.692Z,3.00
2022-12-01T02:29:12.163Z,3.17
2022-12-01T02:31:58.131Z,2.67
2022-12-01T02:34:41.017Z,2.85
2022-12-01T02:37:29.522Z,2.80
2022-12-01T02:40:06.418Z,3.00
2022-12-01T02:42:50.024Z,2.78
2022-12-01T02:45:29.891Z,3.45
2022-12-01T02:48:00.147Z,3.22
2022-12-01T02:50:28.828Z,2.83
2022-12-01T02:52:56.765Z,2.90
2022-12-01T02:55:24.659Z,3.17
2022-12-01T02:57:52.777Z,3.30
2022-12-01T03:00:20.885Z,2.70
2022-12-01T03:03:02.221Z,3.38
2022-12-01T03:05:41.571Z,3.17
2022-12-01T03:08:29.617Z,2.95
2022-12-01T03:10:58.264Z,2.90
2022-12-01T03:13:41.162Z,2.47
2022-12-01T03:16:44.347Z,2.28
2022-12-01T03:19:17.998Z,2.17
2022-12-01T03:21:53.528Z,2.35
2022-12-01T03:24:23.154Z,2.30
2022-12-01T03:26:57.145Z,2.30
2022-12-01T03:29:33.979Z,2.30
2022-12-01T03:32:05.584Z,2.47
2022-12-01T03:34:58.840Z,2.88
2022-12-01T03:37:33.353Z,2.80
2022-12-01T03:40:01.848Z,2.78
2022-12-01T03:42:38.739Z,2.67
2022-12-01T03:45:09.558Z,2.70
2022-12-01T03:47:39.706Z,2.40
2022-12-01T03:50:08.368Z,2.50
2022-12-01T03:52:42.362Z,2.40
2022-12-01T03:55:13.241Z,2.55
2022-12-01T03:57:56.843Z,2.83
2022-12-01T04:00:24.932Z,2.50
2022-12-01T04:02:57.047Z,3.67
2022-12-01T04:05:25.849Z,2.40
2022-12-01T04:07:53.875Z,2.50
2022-12-01T04:10:22.140Z,2.38
2022-12-01T04:12:50.068Z,2.83
2022-12-01T04:15:18.351Z,2.65
2022-12-01T04:17:47.009Z,2.70
2022-12-01T04:20:15.692Z,2.85
2022-12-01T04:22:46.255Z,2.63
2022-12-01T04:25:14.233Z,3.35
2022-12-01T04:27:42.373Z,2.70
2022-12-01T04:30:11.250Z,3.22
2022-12-01T04:32:40.349Z,2.28
2022-12-01T04:35:09.238Z,2.80
2022-12-01T04:37:37.517Z,2.75
2022-12-01T04:40:06.117Z,2.58
2022-12-01T04:42:34.798Z,2.58
2022-12-01T04:45:02.809Z,2.55
2022-12-01T04:47:30.753Z,2.58
2022-12-01T04:49:58.939Z,3.38
2022-12-01T04:52:32.047Z,2.40
2022-12-01T04:55:04.026Z,2.70
2022-12-01T04:57:35.017Z,2.83
2022-12-01T05:00:03.817Z,2.95
2022-12-01T05:02:32.464Z,2.40
2022-12-01T05:05:00.540Z,4.15
2022-12-01T05:07:28.680Z,7.25
2022-12-01T05:09:56.603Z,5.72
2022-12-01T05:12:24.440Z,5.78
2022-12-01T05:14:52.276Z,4.28
2022-12-01T05:17:20.597Z,6.10
2022-12-01T05:20:06.899Z,5.43
2022-12-01T05:23:03.977Z,3.08
2022-12-01T05:25:23.226Z,3.55
2022-12-01T05:27:51.121Z,3.05
2022-12-01T05:30:28.246Z,3.50
2022-12-01T05:32:56.709Z,3.90
2022-12-01T05:35:24.685Z,3.75
2022-12-01T05:37:52.610Z,3.30
2022-12-01T05:40:20.509Z,2.67
2022-12-01T05:42:48.236Z,2.22
2022-12-01T05:45:16.144Z,2.97
2022-12-01T05:47:44.177Z,2.42
2022-12-01T05:50:11.949Z,3.33
2022-12-01T05:52:40.113Z,2.90
2022-12-01T05:55:08.317Z,2.78
2022-12-01T05:57:37.103Z,2.45
2022-12-01T06:00:06.240Z,3.25
2022-12-01T06:02:40.467Z,3.05
2022-12-01T06:05:09.012Z,2.72
2022-12-01T06:07:36.977Z,3.30
2022-12-01T06:10:05.496Z,3.13
2022-12-01T06:12:33.606Z,2.83
2022-12-01T06:15:07.103Z,2.42
2022-12-01T06:17:40.020Z,3.45
2022-12-01T06:20:08.927Z,3.15
2022-12-01T06:22:37.240Z,2.67
2022-12-01T06:25:08.559Z,3.13
2022-12-01T06:27:38.644Z,2.75
2022-12-01T06:30:07.714Z,3.05
2022-12-01T06:32:35.707Z,3.00
2022-12-01T06:35:03.589Z,2.97
2022-12-01T06:37:31.763Z,4.15
2022-12-01T06:40:00.264Z,3.28
2022-12-01T06:42:34.136Z,3.10
2022-12-01T06:45:02.384Z,2.55
2022-12-01T06:47:30.548Z,3.72
2022-12-01T06:49:58.531Z,3.58
2022-12-01T06:52:40.605Z,3.45
2022-12-01T06:55:09.004Z,2.55
2022-12-01T06:57:36.995Z,3.10
2022-12-01T07:00:05.897Z,2.88
2022-12-01T07:02:34.208Z,2.92
2022-12-01T07:05:02.079Z,2.72
2022-12-01T07:07:30.360Z,2.75
2022-12-01T07:09:58.367Z,3.47
2022-12-01T07:12:26.206Z,2.47
2022-12-01T07:14:54.630Z,3.53
2022-12-01T07:17:22.719Z,3.22
2022-12-01T07:19:50.820Z,2.45
2022-12-01T07:22:19.046Z,2.72
2022-12-01T07:24:47.136Z,3.05
2022-12-01T07:27:15.553Z,4.65
2022-12-01T07:29:43.581Z,3.63
2022-12-01T07:32:11.464Z,3.00
2022-12-01T07:34:39.642Z,2.97
2022-12-01T07:37:07.628Z,2.40
2022-12-01T07:39:35.703Z,2.85
2022-12-01T07:42:03.658Z,2.88
2022-12-01T07:44:31.612Z,2.72
2022-12-01T07:46:59.540Z,2.72
2022-12-01T07:49:27.325Z,2.67
2022-12-01T07:51:55.491Z,2.90
2022-12-01T07:54:25.627Z,2.70
2022-12-01T07:56:54.725Z,4.30
2022-12-01T07:59:22.571Z,3.70
2022-12-01T08:01:50.423Z,3.47
2022-12-01T08:04:18.378Z,3.40
2022-12-01T08:06:46.651Z,3.40
2022-12-01T08:09:14.488Z,4.75
2022-12-01T08:11:42.468Z,4.50
2022-12-01T08:14:10.465Z,3.60
2022-12-01T08:16:38.480Z,3.47
2022-12-01T08:19:06.317Z,2.80
2022-12-01T08:21:34.819Z,2.78
2022-12-01T08:24:03.528Z,2.80
2022-12-01T08:26:31.496Z,2.70
2022-12-01T08:28:59.479Z,3.72
2022-12-01T08:31:29.612Z,2.80
2022-12-01T08:33:57.963Z,2.15
2022-12-01T08:36:26.429Z,2.38
2022-12-01T08:38:55.400Z,3.72
2022-12-01T08:41:24.404Z,3.03
2022-12-01T08:44:00.985Z,3.03
2022-12-01T08:46:35.040Z,2.88
2022-12-01T08:49:04.307Z,2.92
2022-12-01T08:51:33.624Z,2.90
2022-12-01T13:09:22.825Z,3.87
2022-12-01T13:11:58.028Z,4.18
2022-12-01T13:14:35.314Z,4.03
2022-12-01T13:17:29.539Z,4.07
2022-12-01T13:19:57.680Z,4.28
2022-12-01T13:22:33.320Z,4.22
2022-12-01T13:25:01.482Z,4.07
2022-12-01T13:27:37.323Z,3.25
2022-12-01T13:30:05.994Z,4.35
2022-12-01T13:35:26.893Z,4.13
2022-12-01T13:37:56.069Z,4.05
2022-12-01T13:40:29.413Z,4.90
2022-12-01T13:43:08.942Z,5.40
2022-12-01T13:48:06.871Z,4.00
2022-12-01T13:50:43.979Z,4.60
2022-12-01T13:53:24.189Z,4.70
2022-12-01T13:56:01.016Z,5.43
2022-12-01T13:58:34.941Z,4.97
2022-12-01T14:01:21.550Z,6.03
2022-12-01T14:03:53.851Z,5.10
2022-12-01T14:06:39.778Z,6.05
2022-12-01T14:09:33.211Z,4.70
2022-12-01T14:12:14.167Z,4.72
2022-12-01T14:14:55.379Z,3.90
2022-12-01T14:17:34.588Z,4.97
2022-12-01T14:20:08.727Z,4.72
2022-12-01T14:22:44.281Z,4.38
2022-12-01T14:25:21.199Z,4.22
2022-12-01T14:27:52.415Z,3.33
2022-12-01T14:30:46.065Z,5.43
2022-12-01T14:34:02.033Z,4.47
2022-12-01T14:36:32.900Z,4.57
2022-12-01T14:39:02.229Z,3.65
2022-12-01T14:42:13.323Z,4.38
2022-12-01T14:44:52.698Z,4.22
2022-12-01T14:47:25.842Z,4.35
2022-12-01T14:50:12.382Z,4.72
2022-12-01T14:52:53.120Z,4.38
2022-12-01T14:55:25.798Z,4.80
2022-12-01T14:58:06.421Z,4.43
2022-12-01T15:00:37.857Z,3.88
2022-12-01T15:03:10.296Z,4.03
2022-12-01T15:05:41.731Z,3.88
2022-12-01T15:11:10.697Z,3.90
2022-12-01T15:13:52.779Z,3.70
2022-12-01T15:16:23.368Z,4.13
2022-12-01T15:18:51.467Z,4.60
2022-12-01T15:21:23.557Z,4.05
2022-12-01T15:23:57.412Z,6.13
2022-12-01T15:26:29.659Z,3.58
2022-12-01T15:29:05.225Z,3.83
2022-12-01T15:31:33.352Z,4.15
2022-12-01T15:34:01.183Z,3.38
2022-12-01T15:36:29.263Z,3.50
2022-12-01T15:39:03.673Z,4.80
2022-12-01T15:41:34.776Z,3.90
2022-12-01T15:44:03.826Z,4.05
2022-12-01T15:46:32.996Z,3.55
2022-12-01T15:49:32.544Z,4.30
2022-12-01T15:52:10.707Z,3.28
2022-12-01T15:54:38.418Z,3.85
2022-12-01T15:57:06.459Z,4.55
2022-12-01T15:59:39.728Z,4.97
2022-12-01T16:02:20.225Z,4.38
2022-12-01T16:04:48.569Z,4.30
2022-12-01T16:07:16.582Z,4.50
2022-12-01T16:09:59.139Z,4.63
2022-12-01T16:12:28.661Z,4.40
2022-12-01T16:15:08.649Z,4.75
2022-12-01T16:17:52.843Z,4.88
2022-12-01T16:20:31.302Z,5.28
2022-12-01T16:23:01.936Z,4.65
2022-12-01T16:25:42.399Z,3.22
2022-12-01T16:28:37.492Z,4.63
2022-12-01T16:31:05.822Z,4.53
2022-12-01T16:33:37.687Z,4.95
2022-12-01T16:36:05.808Z,4.55
2022-12-01T16:38:33.550Z,4.72
2022-12-01T16:41:01.984Z,4.93
2022-12-01T16:43:30.089Z,5.00
2022-12-01T16:46:03.554Z,5.70
2022-12-01T16:48:46.170Z,5.30
2022-12-01T16:51:17.326Z,5.63
2022-12-01T16:53:52.059Z,6.13
2022-12-01T16:56:23.028Z,5.60
2022-12-01T16:58:50.865Z,6.93
2022-12-01T17:01:19.118Z,5.82
2022-12-01T17:03:47.096Z,5.72
2022-12-01T17:06:17.572Z,5.13
2022-12-01T17:08:46.856Z,5.30
2022-12-01T17:11:14.800Z,5.18
2022-12-01T17:13:43.558Z,5.70
2022-12-01T17:16:16.760Z,5.72
2022-12-01T17:18:46.385Z,6.03
2022-12-01T17:21:14.240Z,7.00
2022-12-01T17:23:42.179Z,6.18
2022-12-01T17:26:14.584Z,5.75
2022-12-01T17:28:42.526Z,5.05
2022-12-01T17:31:11.554Z,5.38
2022-12-01T17:33:39.741Z,5.80
2022-12-01T17:36:10.549Z,5.15
2022-12-01T17:38:40.087Z,5.13
2022-12-01T17:41:13.007Z,4.60
2022-12-01T17:43:41.016Z,4.63
2022-12-01T17:46:09.613Z,6.20
2022-12-01T17:48:41.812Z,5.65
2022-12-01T17:51:11.270Z,5.30
2022-12-01T17:53:42.871Z,5.22
2022-12-01T17:56:12.124Z,5.47
2022-12-01T17:58:40.086Z,5.32
2022-12-01T18:01:16.349Z,5.43
2022-12-01T18:03:44.258Z,5.22
2022-12-01T18:06:12.127Z,5.47
2022-12-01T18:08:40.992Z,5.75
2022-12-01T18:11:10.419Z,5.72
2022-12-01T18:13:40.972Z,3.85
2022-12-01T18:16:20.169Z,5.28
2022-12-01T18:18:48.244Z,5.13
2022-12-01T18:21:18.558Z,5.80
2022-12-01T18:23:58.309Z,5.70
2022-12-01T18:26:26.893Z,6.25
2022-12-01T18:29:14.209Z,5.13
2022-12-01T18:31:42.170Z,5.45
2022-12-01T18:34:10.360Z,7.10
2022-12-01T18:36:40.054Z,6.43
2022-12-01T18:39:08.553Z,6.78
2022-12-01T18:41:39.432Z,6.40
2022-12-01T18:44:07.576Z,7.32
2022-12-01T18:46:35.373Z,7.47
2022-12-01T18:49:04.877Z,7.93
2022-12-01T18:51:34.138Z,6.13
2022-12-01T18:54:02.482Z,6.13
2022-12-01T18:56:32.736Z,6.65
2022-12-01T18:59:05.368Z,6.80
2022-12-01T19:01:40.159Z,6.85
2022-12-01T19:04:08.495Z,5.32
2022-12-01T19:06:38.062Z,5.75
2022-12-01T19:09:11.980Z,4.75
2022-12-01T19:11:43.498Z,5.57
2022-12-01T19:16:41.185Z,4.45
2022-12-01T19:19:09.864Z,5.15
2022-12-01T19:21:37.600Z,5.47
2022-12-01T19:24:05.663Z,6.47
2022-12-01T19:26:33.310Z,5.32
2022-12-01T19:29:01.176Z,4.68
2022-12-01T19:31:29.023Z,5.00
2022-12-01T19:33:56.979Z,4.97
2022-12-01T19:36:26.803Z,5.38
2022-12-01T19:38:57.469Z,5.05
2022-12-01T19:41:26.110Z,4.85
2022-12-01T19:43:54.447Z,4.45
2022-12-01T19:46:23.668Z,4.65
2022-12-01T19:49:00.389Z,5.18
2022-12-01T19:51:30.770Z,4.50
2022-12-01T19:53:58.605Z,3.97
2022-12-01T19:56:27.021Z,4.93
2022-12-01T19:58:54.806Z,5.18
2022-12-01T20:01:22.803Z,5.20
2022-12-01T20:03:51.418Z,5.10
2022-12-01T20:06:27.325Z,4.57
2022-12-01T20:08:56.283Z,4.60
2022-12-01T20:11:24.272Z,4.90
2022-12-01T20:13:53.389Z,5.60
2022-12-01T20:16:22.696Z,5.45
2022-12-01T20:18:51.294Z,5.78
2022-12-01T20:21:24.200Z,7.13
2022-12-01T20:23:55.825Z,6.97
2022-12-01T20:26:30.900Z,5.22
2022-12-01T20:29:04.474Z,4.80
2022-12-01T20:31:32.595Z,5.00
2022-12-01T20:34:02.436Z,5.20
2022-12-01T20:36:30.345Z,5.63
2022-12-01T20:38:58.046Z,5.78
2022-12-01T20:41:26.002Z,5.35
2022-12-01T20:43:53.679Z,4.88
2022-12-01T20:46:21.993Z,5.78
2022-12-01T20:48:49.786Z,5.05
2022-12-01T20:51:18.123Z,5.15
2022-12-01T20:54:05.429Z,4.15
2022-12-01T20:56:33.698Z,4.35
2022-12-01T20:59:01.494Z,4.13
2022-12-01T21:01:29.403Z,3.70
2022-12-01T21:03:57.100Z,4.53
2022-12-01T21:06:25.397Z,3.53
2022-12-01T21:08:53.053Z,2.83
2022-12-01T21:11:52.055Z,4.00
2022-12-01T21:14:26.313Z,3.85
2022-12-01T21:16:57.193Z,4.35
2022-12-01T21:19:29.210Z,4.00
2022-12-01T21:21:56.894Z,4.60
2022-12-01T21:24:33.519Z,4.78
2022-12-01T21:27:06.119Z,4.15
2022-12-01T21:29:41.980Z,3.78
2022-12-01T21:32:20.624Z,4.45
2022-12-01T21:34:48.662Z,4.20
2022-12-01T21:37:22.317Z,4.60
2022-12-01T21:39:51.200Z,4.82
2022-12-01T21:42:21.057Z,4.82
2022-12-01T21:44:49.125Z,3.10
2022-12-01T21:47:17.539Z,3.45
2022-12-01T21:49:45.552Z,3.22
2022-12-01T21:52:23.784Z,3.38
2022-12-01T21:54:51.767Z,4.00
2022-12-01T21:57:49.529Z,3.75
2022-12-01T22:00:31.480Z,4.50
2022-12-01T22:03:05.197Z,4.57
2022-12-01T22:06:00.948Z,3.80
2022-12-01T22:08:38.556Z,3.38
2022-12-01T22:11:22.003Z,3.83
2022-12-01T22:14:09.192Z,3.75
2022-12-01T22:16:50.190Z,3.50
2022-12-01T22:19:44.738Z,3.45
2022-12-01T22:22:12.346Z,4.10
2022-12-01T22:24:47.748Z,3.33
2022-12-01T22:27:38.708Z,5.28
2022-12-01T22:30:07.517Z,7.88
2022-12-01T22:32:53.310Z,4.40
2022-12-01T22:35:22.674Z,3.88
2022-12-01T22:38:13.628Z,4.90
2022-12-01T22:40:47.049Z,3.33
2022-12-01T22:43:17.918Z,4.63
2022-12-01T22:45:48.454Z,4.47
2022-12-01T22:48:27.455Z,3.00
2022-12-01T22:50:55.464Z,3.78
2022-12-01T22:53:28.336Z,3.50
2022-12-01T22:55:56.962Z,5.05
2022-12-01T22:58:28.262Z,5.97
2022-12-01T23:03:26.926Z,3.30
2022-12-01T23:05:56.734Z,2.90
2022-12-01T23:08:24.451Z,3.55
2022-12-01T23:10:55.409Z,3.30
2022-12-01T23:13:24.141Z,2.70
2022-12-01T23:15:53.735Z,3.33
2022-12-01T23:18:23.281Z,3.15
2022-12-01T23:20:55.287Z,4.45
2022-12-01T23:23:30.578Z,3.90
2022-12-01T23:25:58.472Z,3.75
2022-12-01T23:28:26.174Z,6.72
2022-12-01T23:30:56.073Z,5.53
2022-12-01T23:33:32.068Z,3.53
2022-12-01T23:36:11.977Z,3.63
2022-12-01T23:38:41.711Z,3.85
2022-12-01T23:41:29.094Z,3.85
2022-12-01T23:43:57.340Z,3.13
2022-12-01T23:46:25.280Z,3.17
2022-12-01T23:48:54.735Z,3.78
2022-12-01T23:51:38.705Z,4.43
2022-12-01T23:54:17.171Z,4.85
2022-12-01T23:56:45.404Z,4.20
2022-12-01T23:59:13.408Z,3.45
